sensor_id;sensor_type;location;lat;lon;timestamp;temperature;humidity
37956;DHT22;23776;51.592;7.180;2022-12-16T00:00:25;-5.40;1.00
37956;DHT22;23776;51.592;7.180;2022-12-16T00:02:51;-5.40;1.00
37956;DHT22;23776;51.592;7.180;2022-12-16T00:05:17;-5.40;1.00
37956;DHT22;23776;51.592;7.180;2022-12-16T00:07:46;-5.30;1.00
37956;DHT22;23776;51.592;7.180;2022-12-16T00:10:12;-5.40;1.00
37956;DHT22;23776;51.592;7.180;2022-12-16T00:12:38;-5.50;1.00
37956;DHT22;23776;51.592;7.180;2022-12-16T00:15:04;-5.60;1.00
37956;DHT22;23776;51.592;7.180;2022-12-16T00:17:30;-5.50;1.00
37956;DHT22;23776;51.592;7.180;2022-12-16T00:19:55;-5.50;1.00
37956;DHT22;23776;51.592;7.180;2022-12-16T00:22:22;-5.50;1.00
37956;DHT22;23776;51.592;7.180;2022-12-16T00:24:51;-5.40;1.00
37956;DHT22;23776;51.592;7.180;2022-12-16T00:27:16;-5.50;1.00
37956;DHT22;23776;51.592;7.180;2022-12-16T00:29:42;-5.40;1.00
37956;DHT22;23776;51.592;7.180;2022-12-16T00:32:07;-4.20;1.00
37956;DHT22;23776;51.592;7.180;2022-12-16T00:34:33;-5.50;1.00
37956;DHT22;23776;51.592;7.180;2022-12-16T00:36:59;-5.50;1.00
37956;DHT22;23776;51.592;7.180;2022-12-16T00:39:24;-5.40;1.00
37956;DHT22;23776;51.592;7.180;2022-12-16T00:41:50;-5.50;1.00
37956;DHT22;23776;51.592;7.180;2022-12-16T00:44:16;-5.50;1.00
37956;DHT22;23776;51.592;7.180;2022-12-16T00:46:42;-5.50;1.00
37956;DHT22;23776;51.592;7.180;2022-12-16T00:49:08;-5.40;1.00
37956;DHT22;23776;51.592;7.180;2022-12-16T00:51:33;-5.50;1.00
37956;DHT22;23776;51.592;7.180;2022-12-16T00:53:59;-5.40;1.00
37956;DHT22;23776;51.592;7.180;2022-12-16T00:56:24;-5.60;1.00
37956;DHT22;23776;51.592;7.180;2022-12-16T00:58:50;-5.60;1.00
37956;DHT22;23776;51.592;7.180;2022-12-16T01:01:15;-5.60;1.00
37956;DHT22;23776;51.592;7.180;2022-12-16T01:03:41;-5.70;1.00
37956;DHT22;23776;51.592;7.180;2022-12-16T01:06:12;-5.80;1.00
37956;DHT22;23776;51.592;7.180;2022-12-16T01:08:38;-5.70;1.00
37956;DHT22;23776;51.592;7.180;2022-12-16T01:11:04;-5.60;1.00
37956;DHT22;23776;51.592;7.180;2022-12-16T01:13:29;-5.50;1.00
37956;DHT22;23776;51.592;7.180;2022-12-16T01:15:59;-5.60;1.00
37956;DHT22;23776;51.592;7.180;2022-12-16T01:18:24;-5.60;1.00
37956;DHT22;23776;51.592;7.180;2022-12-16T01:20:50;-5.70;1.00
37956;DHT22;23776;51.592;7.180;2022-12-16T01:23:16;-5.70;1.00
37956;DHT22;23776;51.592;7.180;2022-12-16T01:25:42;-5.80;1.00
37956;DHT22;23776;51.592;7.180;2022-12-16T01:28:08;-5.90;1.00
37956;DHT22;23776;51.592;7.180;2022-12-16T01:30:33;-5.70;1.00
37956;DHT22;23776;51.592;7.180;2022-12-16T01:32:59;-5.70;1.00
37956;DHT22;23776;51.592;7.180;2022-12-16T01:35:24;-5.70;1.00
37956;DHT22;23776;51.592;7.180;2022-12-16T01:37:50;-5.70;1.00
37956;DHT22;23776;51.592;7.180;2022-12-16T01:40:18;-5.70;1.00
37956;DHT22;23776;51.592;7.180;2022-12-16T01:42:45;-5.70;1.00
37956;DHT22;23776;51.592;7.180;2022-12-16T01:45:30;-5.80;1.00
37956;DHT22;23776;51.592;7.180;2022-12-16T01:48:06;-5.80;1.00
37956;DHT22;23776;51.592;7.180;2022-12-16T01:50:36;-5.20;1.00
37956;DHT22;23776;51.592;7.180;2022-12-16T01:53:03;-5.80;1.00
37956;DHT22;23776;51.592;7.180;2022-12-16T01:55:42;-5.70;1.00
37956;DHT22;23776;51.592;7.180;2022-12-16T01:58:12;-5.60;1.00
37956;DHT22;23776;51.592;7.180;2022-12-16T02:00:40;-5.60;1.00
37956;DHT22;23776;51.592;7.180;2022-12-16T02:03:07;-5.80;1.00
37956;DHT22;23776;51.592;7.180;2022-12-16T02:05:35;-5.80;1.00
37956;DHT22;23776;51.592;7.180;2022-12-16T02:11:21;-5.70;1.00
37956;DHT22;23776;51.592;7.180;2022-12-16T02:16:58;-5.70;1.00
37956;DHT22;23776;51.592;7.180;2022-12-16T02:19:32;-5.60;1.00
37956;DHT22;23776;51.592;7.180;2022-12-16T02:30:34;-5.90;1.00
37956;DHT22;23776;51.592;7.180;2022-12-16T02:33:33;-6.00;1.00
37956;DHT22;23776;51.592;7.180;2022-12-16T02:38:58;-5.80;1.00
37956;DHT22;23776;51.592;7.180;2022-12-16T02:41:39;-5.90;1.00
37956;DHT22;23776;51.592;7.180;2022-12-16T02:44:08;-6.00;1.00
37956;DHT22;23776;51.592;7.180;2022-12-16T02:46:42;-6.00;1.00
37956;DHT22;23776;51.592;7.180;2022-12-16T02:51:56;-5.90;1.00
37956;DHT22;23776;51.592;7.180;2022-12-16T02:54:22;-5.90;1.00
37956;DHT22;23776;51.592;7.180;2022-12-16T02:57:00;-5.80;1.00
37956;DHT22;23776;51.592;7.180;2022-12-16T03:02:39;-5.90;1.00
37956;DHT22;23776;51.592;7.180;2022-12-16T03:07:41;-6.00;1.00
37956;DHT22;23776;51.592;7.180;2022-12-16T03:10:12;-6.10;1.00
37956;DHT22;23776;51.592;7.180;2022-12-16T03:12:40;-6.00;1.00
37956;DHT22;23776;51.592;7.180;2022-12-16T03:15:08;-5.90;1.00
37956;DHT22;23776;51.592;7.180;2022-12-16T03:17:35;-6.00;1.00
37956;DHT22;23776;51.592;7.180;2022-12-16T03:20:10;-6.10;1.00
37956;DHT22;23776;51.592;7.180;2022-12-16T03:22:38;-6.10;1.00
37956;DHT22;23776;51.592;7.180;2022-12-16T03:25:06;-6.10;1.00
37956;DHT22;23776;51.592;7.180;2022-12-16T03:30:15;-6.20;1.00
37956;DHT22;23776;51.592;7.180;2022-12-16T03:32:50;-6.00;1.00
37956;DHT22;23776;51.592;7.180;2022-12-16T03:35:22;-6.10;1.00
37956;DHT22;23776;51.592;7.180;2022-12-16T03:37:51;-6.00;1.00
37956;DHT22;23776;51.592;7.180;2022-12-16T03:40:18;-6.00;1.00
37956;DHT22;23776;51.592;7.180;2022-12-16T03:42:46;-6.00;1.00
37956;DHT22;23776;51.592;7.180;2022-12-16T03:45:17;-6.20;1.00
37956;DHT22;23776;51.592;7.180;2022-12-16T03:47:50;-6.20;1.00
37956;DHT22;23776;51.592;7.180;2022-12-16T03:50:18;-6.20;1.00
37956;DHT22;23776;51.592;7.180;2022-12-16T03:52:46;-6.20;1.00
37956;DHT22;23776;51.592;7.180;2022-12-16T03:55:12;-6.10;1.00
37956;DHT22;23776;51.592;7.180;2022-12-16T03:57:38;-6.00;1.00
37956;DHT22;23776;51.592;7.180;2022-12-16T04:00:04;-6.00;1.00
37956;DHT22;23776;51.592;7.180;2022-12-16T04:02:30;-3.90;1.00
37956;DHT22;23776;51.592;7.180;2022-12-16T04:04:55;-6.10;1.00
37956;DHT22;23776;51.592;7.180;2022-12-16T04:07:21;-6.30;1.00
37956;DHT22;23776;51.592;7.180;2022-12-16T04:09:50;-6.40;1.00
37956;DHT22;23776;51.592;7.180;2022-12-16T04:12:16;-6.50;1.00
37956;DHT22;23776;51.592;7.180;2022-12-16T04:15:00;-6.50;1.00
37956;DHT22;23776;51.592;7.180;2022-12-16T04:17:44;-6.50;1.00
37956;DHT22;23776;51.592;7.180;2022-12-16T04:20:33;-6.40;1.00
37956;DHT22;23776;51.592;7.180;2022-12-16T04:23:21;-6.50;1.00
37956;DHT22;23776;51.592;7.180;2022-12-16T04:26:07;-6.30;1.00
37956;DHT22;23776;51.592;7.180;2022-12-16T04:28:33;-6.30;1.00
37956;DHT22;23776;51.592;7.180;2022-12-16T04:30:59;-6.50;1.00
37956;DHT22;23776;51.592;7.180;2022-12-16T04:33:25;-6.40;1.00
37956;DHT22;23776;51.592;7.180;2022-12-16T04:36:09;-6.40;1.00
37956;DHT22;23776;51.592;7.180;2022-12-16T04:38:53;-6.50;1.00
37956;DHT22;23776;51.592;7.180;2022-12-16T04:41:37;-6.40;1.00
37956;DHT22;23776;51.592;7.180;2022-12-16T04:44:22;-6.30;1.00
37956;DHT22;23776;51.592;7.180;2022-12-16T04:47:06;-6.50;1.00
37956;DHT22;23776;51.592;7.180;2022-12-16T04:49:51;-6.20;1.00
37956;DHT22;23776;51.592;7.180;2022-12-16T04:52:35;-6.10;1.00
37956;DHT22;23776;51.592;7.180;2022-12-16T04:55:20;-6.30;1.00
37956;DHT22;23776;51.592;7.180;2022-12-16T04:58:04;-6.50;1.00
37956;DHT22;23776;51.592;7.180;2022-12-16T05:00:48;-6.60;1.00
37956;DHT22;23776;51.592;7.180;2022-12-16T05:03:33;-6.60;1.00
37956;DHT22;23776;51.592;7.180;2022-12-16T05:06:18;-6.60;1.00
37956;DHT22;23776;51.592;7.180;2022-12-16T05:09:03;-6.60;1.00
37956;DHT22;23776;51.592;7.180;2022-12-16T05:11:48;-6.60;1.00
37956;DHT22;23776;51.592;7.180;2022-12-16T05:14:32;-6.70;1.00
37956;DHT22;23776;51.592;7.180;2022-12-16T05:17:16;-6.60;1.00
37956;DHT22;23776;51.592;7.180;2022-12-16T05:20:01;-6.70;1.00
37956;DHT22;23776;51.592;7.180;2022-12-16T05:22:45;-6.60;1.00
37956;DHT22;23776;51.592;7.180;2022-12-16T05:25:29;-6.70;1.00
37956;DHT22;23776;51.592;7.180;2022-12-16T05:28:14;-6.80;1.00
37956;DHT22;23776;51.592;7.180;2022-12-16T05:30:58;-6.80;1.00
37956;DHT22;23776;51.592;7.180;2022-12-16T05:33:43;-6.60;1.00
37956;DHT22;23776;51.592;7.180;2022-12-16T05:36:27;-6.60;1.00
37956;DHT22;23776;51.592;7.180;2022-12-16T05:39:11;-6.60;1.00
37956;DHT22;23776;51.592;7.180;2022-12-16T05:41:56;-6.60;1.00
37956;DHT22;23776;51.592;7.180;2022-12-16T05:44:40;-6.60;1.00
37956;DHT22;23776;51.592;7.180;2022-12-16T05:47:24;-6.60;1.00
37956;DHT22;23776;51.592;7.180;2022-12-16T05:50:09;-6.40;1.00
37956;DHT22;23776;51.592;7.180;2022-12-16T05:52:55;-6.40;1.00
37956;DHT22;23776;51.592;7.180;2022-12-16T05:55:39;-6.40;1.00
37956;DHT22;23776;51.592;7.180;2022-12-16T05:58:23;-6.40;1.00
37956;DHT22;23776;51.592;7.180;2022-12-16T06:01:08;-6.50;1.00
37956;DHT22;23776;51.592;7.180;2022-12-16T06:03:53;-6.50;1.00
37956;DHT22;23776;51.592;7.180;2022-12-16T06:06:37;-6.50;1.00
37956;DHT22;23776;51.592;7.180;2022-12-16T06:09:21;-6.50;1.00
37956;DHT22;23776;51.592;7.180;2022-12-16T06:12:06;-6.40;1.00
37956;DHT22;23776;51.592;7.180;2022-12-16T06:14:50;-6.40;1.00
37956;DHT22;23776;51.592;7.180;2022-12-16T06:17:34;-6.30;1.00
37956;DHT22;23776;51.592;7.180;2022-12-16T06:20:19;-6.40;1.00
37956;DHT22;23776;51.592;7.180;2022-12-16T06:23:03;-6.40;1.00
37956;DHT22;23776;51.592;7.180;2022-12-16T06:25:48;-6.40;1.00
37956;DHT22;23776;51.592;7.180;2022-12-16T06:28:33;-6.30;1.00
37956;DHT22;23776;51.592;7.180;2022-12-16T06:31:18;-6.20;1.00
37956;DHT22;23776;51.592;7.180;2022-12-16T06:34:02;-6.10;1.00
37956;DHT22;23776;51.592;7.180;2022-12-16T06:36:46;-4.40;1.00
37956;DHT22;23776;51.592;7.180;2022-12-16T06:39:31;-6.20;1.00
37956;DHT22;23776;51.592;7.180;2022-12-16T06:42:15;-6.20;1.00
37956;DHT22;23776;51.592;7.180;2022-12-16T06:44:59;-6.20;1.00
37956;DHT22;23776;51.592;7.180;2022-12-16T06:47:43;-6.20;1.00
37956;DHT22;23776;51.592;7.180;2022-12-16T06:50:28;-6.30;1.00
37956;DHT22;23776;51.592;7.180;2022-12-16T06:53:12;-6.30;1.00
37956;DHT22;23776;51.592;7.180;2022-12-16T06:55:57;-6.30;1.00
37956;DHT22;23776;51.592;7.180;2022-12-16T06:58:41;-6.10;1.00
37956;DHT22;23776;51.592;7.180;2022-12-16T07:01:25;-6.40;1.00
37956;DHT22;23776;51.592;7.180;2022-12-16T07:04:10;-6.20;1.00
37956;DHT22;23776;51.592;7.180;2022-12-16T07:06:54;-6.20;1.00
37956;DHT22;23776;51.592;7.180;2022-12-16T07:09:39;-6.20;1.00
37956;DHT22;23776;51.592;7.180;2022-12-16T07:12:23;-6.10;1.00
37956;DHT22;23776;51.592;7.180;2022-12-16T07:15:07;-6.20;1.00
37956;DHT22;23776;51.592;7.180;2022-12-16T07:17:52;-6.10;1.00
37956;DHT22;23776;51.592;7.180;2022-12-16T07:20:36;-6.20;1.00
37956;DHT22;23776;51.592;7.180;2022-12-16T07:23:20;-6.20;1.00
37956;DHT22;23776;51.592;7.180;2022-12-16T07:26:04;-6.40;1.00
37956;DHT22;23776;51.592;7.180;2022-12-16T07:28:49;-6.30;1.00
37956;DHT22;23776;51.592;7.180;2022-12-16T07:31:33;-6.50;1.00
37956;DHT22;23776;51.592;7.180;2022-12-16T07:34:17;-6.30;1.00
37956;DHT22;23776;51.592;7.180;2022-12-16T07:37:01;-6.40;1.00
37956;DHT22;23776;51.592;7.180;2022-12-16T07:39:46;-6.50;1.00
37956;DHT22;23776;51.592;7.180;2022-12-16T07:42:30;-6.30;1.00
37956;DHT22;23776;51.592;7.180;2022-12-16T07:45:14;-6.30;1.00
37956;DHT22;23776;51.592;7.180;2022-12-16T07:47:58;-6.30;1.00
37956;DHT22;23776;51.592;7.180;2022-12-16T07:50:43;-6.20;1.00
37956;DHT22;23776;51.592;7.180;2022-12-16T07:53:27;-6.10;1.00
37956;DHT22;23776;51.592;7.180;2022-12-16T07:56:11;-5.90;1.00
37956;DHT22;23776;51.592;7.180;2022-12-16T07:58:55;-5.70;1.00
37956;DHT22;23776;51.592;7.180;2022-12-16T08:01:40;-5.70;1.00
37956;DHT22;23776;51.592;7.180;2022-12-16T08:04:24;-5.60;1.00
37956;DHT22;23776;51.592;7.180;2022-12-16T08:07:08;-5.60;1.00
37956;DHT22;23776;51.592;7.180;2022-12-16T08:09:52;-5.40;1.00
37956;DHT22;23776;51.592;7.180;2022-12-16T08:12:37;-5.20;1.00
37956;DHT22;23776;51.592;7.180;2022-12-16T08:15:21;-5.10;1.00
37956;DHT22;23776;51.592;7.180;2022-12-16T08:18:06;-5.00;1.00
37956;DHT22;23776;51.592;7.180;2022-12-16T08:20:50;-4.90;1.00
37956;DHT22;23776;51.592;7.180;2022-12-16T08:23:34;-4.70;1.00
37956;DHT22;23776;51.592;7.180;2022-12-16T08:26:18;-5.60;1.00
37956;DHT22;23776;51.592;7.180;2022-12-16T08:29:03;-4.50;1.00
37956;DHT22;23776;51.592;7.180;2022-12-16T08:31:47;-4.50;1.00
37956;DHT22;23776;51.592;7.180;2022-12-16T08:34:31;-4.40;1.00
37956;DHT22;23776;51.592;7.180;2022-12-16T08:37:15;-4.30;1.00
37956;DHT22;23776;51.592;7.180;2022-12-16T08:39:59;-4.00;1.00
37956;DHT22;23776;51.592;7.180;2022-12-16T08:42:43;-3.90;1.00
37956;DHT22;23776;51.592;7.180;2022-12-16T08:45:28;-3.90;1.00
37956;DHT22;23776;51.592;7.180;2022-12-16T08:48:12;-3.80;1.00
37956;DHT22;23776;51.592;7.180;2022-12-16T08:51:00;-3.80;1.00
37956;DHT22;23776;51.592;7.180;2022-12-16T08:53:45;-3.60;1.00
37956;DHT22;23776;51.592;7.180;2022-12-16T08:56:29;-3.50;1.00
37956;DHT22;23776;51.592;7.180;2022-12-16T08:59:13;-3.40;1.00
37956;DHT22;23776;51.592;7.180;2022-12-16T09:01:58;-3.30;1.00
37956;DHT22;23776;51.592;7.180;2022-12-16T09:04:42;-3.30;1.00
37956;DHT22;23776;51.592;7.180;2022-12-16T09:07:26;-3.30;1.00
37956;DHT22;23776;51.592;7.180;2022-12-16T09:10:11;-3.20;1.00
37956;DHT22;23776;51.592;7.180;2022-12-16T09:13:11;-3.10;1.00
37956;DHT22;23776;51.592;7.180;2022-12-16T09:15:55;-3.00;1.00
37956;DHT22;23776;51.592;7.180;2022-12-16T09:18:40;-2.80;1.00
37956;DHT22;23776;51.592;7.180;2022-12-16T09:21:24;-2.70;1.00
37956;DHT22;23776;51.592;7.180;2022-12-16T09:24:08;-2.50;1.00
37956;DHT22;23776;51.592;7.180;2022-12-16T09:26:52;-2.20;1.00
37956;DHT22;23776;51.592;7.180;2022-12-16T09:29:36;-2.20;1.00
37956;DHT22;23776;51.592;7.180;2022-12-16T09:32:21;-2.00;1.00
37956;DHT22;23776;51.592;7.180;2022-12-16T09:35:05;-1.90;1.00
37956;DHT22;23776;51.592;7.180;2022-12-16T09:37:50;-1.70;1.00
37956;DHT22;23776;51.592;7.180;2022-12-16T09:40:37;-1.60;1.00
37956;DHT22;23776;51.592;7.180;2022-12-16T09:46:27;-1.40;99.90
37956;DHT22;23776;51.592;7.180;2022-12-16T09:49:40;-1.30;99.90
37956;DHT22;23776;51.592;7.180;2022-12-16T09:52:27;-1.20;99.90
37956;DHT22;23776;51.592;7.180;2022-12-16T09:55:25;-1.20;99.90
37956;DHT22;23776;51.592;7.180;2022-12-16T09:58:12;-1.20;99.90
37956;DHT22;23776;51.592;7.180;2022-12-16T10:00:57;-1.20;99.90
37956;DHT22;23776;51.592;7.180;2022-12-16T10:03:41;-1.10;99.90
37956;DHT22;23776;51.592;7.180;2022-12-16T10:12:32;-0.80;99.90
37956;DHT22;23776;51.592;7.180;2022-12-16T10:15:42;-0.60;99.90
37956;DHT22;23776;51.592;7.180;2022-12-16T10:21:53;-0.30;99.90
37956;DHT22;23776;51.592;7.180;2022-12-16T10:30:21;0.20;99.90
37956;DHT22;23776;51.592;7.180;2022-12-16T10:33:19;0.30;99.90
37956;DHT22;23776;51.592;7.180;2022-12-16T10:36:04;0.50;99.90
37956;DHT22;23776;51.592;7.180;2022-12-16T10:38:51;0.30;1.00
37956;DHT22;23776;51.592;7.180;2022-12-16T10:41:39;0.20;99.90
37956;DHT22;23776;51.592;7.180;2022-12-16T10:44:30;0.20;99.90
37956;DHT22;23776;51.592;7.180;2022-12-16T10:47:16;0.30;99.90
37956;DHT22;23776;51.592;7.180;2022-12-16T10:50:05;1.00;99.90
37956;DHT22;23776;51.592;7.180;2022-12-16T10:52:54;0.50;99.90
37956;DHT22;23776;51.592;7.180;2022-12-16T10:58:53;0.70;99.90
37956;DHT22;23776;51.592;7.180;2022-12-16T11:01:38;0.80;99.90
37956;DHT22;23776;51.592;7.180;2022-12-16T11:04:33;0.80;99.90
37956;DHT22;23776;51.592;7.180;2022-12-16T11:07:25;1.00;99.90
37956;DHT22;23776;51.592;7.180;2022-12-16T11:10:33;1.80;99.90
37956;DHT22;23776;51.592;7.180;2022-12-16T11:13:28;3.20;1.00
37956;DHT22;23776;51.592;7.180;2022-12-16T11:16:22;4.70;99.90
37956;DHT22;23776;51.592;7.180;2022-12-16T11:19:24;5.90;99.90
37956;DHT22;23776;51.592;7.180;2022-12-16T11:22:15;7.00;99.90
37956;DHT22;23776;51.592;7.180;2022-12-16T11:27:49;8.30;99.90
37956;DHT22;23776;51.592;7.180;2022-12-16T11:30:33;8.80;99.90
37956;DHT22;23776;51.592;7.180;2022-12-16T11:33:25;9.20;1.00
37956;DHT22;23776;51.592;7.180;2022-12-16T11:36:18;9.50;1.00
37956;DHT22;23776;51.592;7.180;2022-12-16T11:39:03;9.90;1.00
37956;DHT22;23776;51.592;7.180;2022-12-16T11:41:52;10.00;99.90
37956;DHT22;23776;51.592;7.180;2022-12-16T11:44:50;10.10;99.90
37956;DHT22;23776;51.592;7.180;2022-12-16T11:47:45;10.00;99.90
37956;DHT22;23776;51.592;7.180;2022-12-16T11:50:32;10.00;99.90
37956;DHT22;23776;51.592;7.180;2022-12-16T11:56:30;10.40;99.90
37956;DHT22;23776;51.592;7.180;2022-12-16T11:59:23;10.20;99.90
37956;DHT22;23776;51.592;7.180;2022-12-16T12:02:29;10.00;99.90
37956;DHT22;23776;51.592;7.180;2022-12-16T12:05:18;9.60;99.90
37956;DHT22;23776;51.592;7.180;2022-12-16T12:08:16;9.10;99.90
37956;DHT22;23776;51.592;7.180;2022-12-16T12:11:38;8.70;99.90
37956;DHT22;23776;51.592;7.180;2022-12-16T12:14:40;7.70;99.90
37956;DHT22;23776;51.592;7.180;2022-12-16T12:17:58;7.00;1.00
37956;DHT22;23776;51.592;7.180;2022-12-16T12:23:56;5.50;99.90
37956;DHT22;23776;51.592;7.180;2022-12-16T12:36:33;4.10;99.90
37956;DHT22;23776;51.592;7.180;2022-12-16T12:42:35;3.80;1.00
37956;DHT22;23776;51.592;7.180;2022-12-16T12:45:36;3.60;99.90
37956;DHT22;23776;51.592;7.180;2022-12-16T12:57:30;3.60;99.90
37956;DHT22;23776;51.592;7.180;2022-12-16T13:00:18;3.60;99.90
37956;DHT22;23776;51.592;7.180;2022-12-16T13:03:23;3.70;99.90
37956;DHT22;23776;51.592;7.180;2022-12-16T13:06:13;3.90;91.90
37956;DHT22;23776;51.592;7.180;2022-12-16T13:08:58;3.90;1.00
37956;DHT22;23776;51.592;7.180;2022-12-16T13:15:06;4.20;99.90
37956;DHT22;23776;51.592;7.180;2022-12-16T13:20:45;4.40;99.90
37956;DHT22;23776;51.592;7.180;2022-12-16T13:23:35;4.50;51.00
37956;DHT22;23776;51.592;7.180;2022-12-16T13:26:21;4.60;9.30
37956;DHT22;23776;51.592;7.180;2022-12-16T13:29:27;4.60;1.00
37956;DHT22;23776;51.592;7.180;2022-12-16T13:32:23;4.40;1.00
37956;DHT22;23776;51.592;7.180;2022-12-16T13:37:56;4.30;94.70
37956;DHT22;23776;51.592;7.180;2022-12-16T13:41:50;4.40;99.90
37956;DHT22;23776;51.592;7.180;2022-12-16T13:44:55;4.00;99.90
37956;DHT22;23776;51.592;7.180;2022-12-16T13:50:43;4.40;1.00
37956;DHT22;23776;51.592;7.180;2022-12-16T13:53:33;4.20;73.00
37956;DHT22;23776;51.592;7.180;2022-12-16T13:56:32;3.90;99.90
37956;DHT22;23776;51.592;7.180;2022-12-16T13:59:20;3.80;1.00
37956;DHT22;23776;51.592;7.180;2022-12-16T14:02:32;3.70;1.00
37956;DHT22;23776;51.592;7.180;2022-12-16T14:05:24;3.60;99.90
37956;DHT22;23776;51.592;7.180;2022-12-16T14:08:14;3.40;99.90
37956;DHT22;23776;51.592;7.180;2022-12-16T14:11:02;3.20;23.20
37956;DHT22;23776;51.592;7.180;2022-12-16T14:13:53;3.20;99.90
37956;DHT22;23776;51.592;7.180;2022-12-16T14:16:56;3.10;1.00
37956;DHT22;23776;51.592;7.180;2022-12-16T14:23:20;3.00;99.90
37956;DHT22;23776;51.592;7.180;2022-12-16T14:26:11;2.90;99.90
37956;DHT22;23776;51.592;7.180;2022-12-16T14:28:56;2.90;1.00
37956;DHT22;23776;51.592;7.180;2022-12-16T14:31:43;2.80;91.00
37956;DHT22;23776;51.592;7.180;2022-12-16T14:34:35;2.60;99.90
37956;DHT22;23776;51.592;7.180;2022-12-16T14:37:27;2.40;99.90
37956;DHT22;23776;51.592;7.180;2022-12-16T14:46:00;2.30;99.90
37956;DHT22;23776;51.592;7.180;2022-12-16T14:48:46;2.10;1.00
37956;DHT22;23776;51.592;7.180;2022-12-16T14:51:36;2.00;1.00
37956;DHT22;23776;51.592;7.180;2022-12-16T15:00:10;1.50;99.90
37956;DHT22;23776;51.592;7.180;2022-12-16T15:06:03;1.30;46.80
37956;DHT22;23776;51.592;7.180;2022-12-16T15:08:52;1.30;96.20
37956;DHT22;23776;51.592;7.180;2022-12-16T15:11:39;1.10;99.90
37956;DHT22;23776;51.592;7.180;2022-12-16T15:14:31;1.00;99.90
37956;DHT22;23776;51.592;7.180;2022-12-16T15:17:23;1.10;99.90
37956;DHT22;23776;51.592;7.180;2022-12-16T15:20:26;0.90;99.90
37956;DHT22;23776;51.592;7.180;2022-12-16T15:26:05;0.60;99.90
37956;DHT22;23776;51.592;7.180;2022-12-16T15:28:49;0.40;99.90
37956;DHT22;23776;51.592;7.180;2022-12-16T15:31:37;0.30;99.90
37956;DHT22;23776;51.592;7.180;2022-12-16T15:34:27;0.20;99.90
37956;DHT22;23776;51.592;7.180;2022-12-16T15:37:28;0.10;1.00
37956;DHT22;23776;51.592;7.180;2022-12-16T15:40:21;0.10;1.00
37956;DHT22;23776;51.592;7.180;2022-12-16T15:43:19;0.00;1.00
37956;DHT22;23776;51.592;7.180;2022-12-16T15:46:03;-0.10;1.00
37956;DHT22;23776;51.592;7.180;2022-12-16T15:48:49;-0.10;1.00
37956;DHT22;23776;51.592;7.180;2022-12-16T15:51:45;-0.20;1.00
37956;DHT22;23776;51.592;7.180;2022-12-16T15:54:30;-0.20;1.00
37956;DHT22;23776;51.592;7.180;2022-12-16T15:57:29;-0.30;1.00
37956;DHT22;23776;51.592;7.180;2022-12-16T16:03:01;-0.40;1.00
37956;DHT22;23776;51.592;7.180;2022-12-16T16:05:50;-0.40;1.00
37956;DHT22;23776;51.592;7.180;2022-12-16T16:08:34;-0.50;1.00
37956;DHT22;23776;51.592;7.180;2022-12-16T16:11:38;-0.50;1.00
37956;DHT22;23776;51.592;7.180;2022-12-16T16:14:22;1.70;1.00
37956;DHT22;23776;51.592;7.180;2022-12-16T16:17:19;-0.40;1.00
37956;DHT22;23776;51.592;7.180;2022-12-16T16:20:05;-0.50;1.00
37956;DHT22;23776;51.592;7.180;2022-12-16T16:22:49;-0.50;1.00
37956;DHT22;23776;51.592;7.180;2022-12-16T16:25:33;-0.60;1.00
37956;DHT22;23776;51.592;7.180;2022-12-16T16:28:18;-0.60;1.00
37956;DHT22;23776;51.592;7.180;2022-12-16T16:31:02;-0.70;1.00
37956;DHT22;23776;51.592;7.180;2022-12-16T16:33:46;-0.70;1.00
37956;DHT22;23776;51.592;7.180;2022-12-16T16:36:30;-0.80;1.00
37956;DHT22;23776;51.592;7.180;2022-12-16T16:39:14;-0.90;1.00
37956;DHT22;23776;51.592;7.180;2022-12-16T16:41:59;-0.80;1.00
37956;DHT22;23776;51.592;7.180;2022-12-16T16:44:44;-1.00;1.00
37956;DHT22;23776;51.592;7.180;2022-12-16T16:47:28;-1.20;1.00
37956;DHT22;23776;51.592;7.180;2022-12-16T16:50:14;-1.20;1.00
37956;DHT22;23776;51.592;7.180;2022-12-16T16:52:59;-1.20;1.00
37956;DHT22;23776;51.592;7.180;2022-12-16T16:55:44;-1.10;1.00
37956;DHT22;23776;51.592;7.180;2022-12-16T16:58:32;-1.00;1.00
37956;DHT22;23776;51.592;7.180;2022-12-16T17:01:17;-1.10;1.00
37956;DHT22;23776;51.592;7.180;2022-12-16T17:04:02;-1.20;1.00
37956;DHT22;23776;51.592;7.180;2022-12-16T17:06:54;-1.20;1.00
37956;DHT22;23776;51.592;7.180;2022-12-16T17:09:38;-1.10;1.00
37956;DHT22;23776;51.592;7.180;2022-12-16T17:12:28;-1.10;1.00
37956;DHT22;23776;51.592;7.180;2022-12-16T17:18:04;-1.10;1.00
37956;DHT22;23776;51.592;7.180;2022-12-16T17:20:49;-1.20;1.00
37956;DHT22;23776;51.592;7.180;2022-12-16T17:23:33;-1.20;1.00
37956;DHT22;23776;51.592;7.180;2022-12-16T17:26:17;-1.20;1.00
37956;DHT22;23776;51.592;7.180;2022-12-16T17:29:03;-1.30;1.00
37956;DHT22;23776;51.592;7.180;2022-12-16T17:31:47;-1.20;1.00
37956;DHT22;23776;51.592;7.180;2022-12-16T17:34:32;0.70;1.00
37956;DHT22;23776;51.592;7.180;2022-12-16T17:37:16;-1.40;1.00
37956;DHT22;23776;51.592;7.180;2022-12-16T17:40:00;-1.60;1.00
37956;DHT22;23776;51.592;7.180;2022-12-16T17:42:44;-1.70;1.00
37956;DHT22;23776;51.592;7.180;2022-12-16T17:45:29;-1.70;1.00
37956;DHT22;23776;51.592;7.180;2022-12-16T17:48:13;-1.70;1.00
37956;DHT22;23776;51.592;7.180;2022-12-16T17:51:00;-1.80;1.00
37956;DHT22;23776;51.592;7.180;2022-12-16T17:53:45;-1.80;1.00
37956;DHT22;23776;51.592;7.180;2022-12-16T17:56:30;-1.70;1.00
37956;DHT22;23776;51.592;7.180;2022-12-16T17:59:14;-1.70;1.00
37956;DHT22;23776;51.592;7.180;2022-12-16T18:01:59;-1.70;1.00
37956;DHT22;23776;51.592;7.180;2022-12-16T18:04:43;-1.80;1.00
37956;DHT22;23776;51.592;7.180;2022-12-16T18:07:27;-1.70;1.00
37956;DHT22;23776;51.592;7.180;2022-12-16T18:10:12;-1.60;1.00
37956;DHT22;23776;51.592;7.180;2022-12-16T18:12:56;-1.60;1.00
37956;DHT22;23776;51.592;7.180;2022-12-16T18:15:40;-1.60;1.00
37956;DHT22;23776;51.592;7.180;2022-12-16T18:18:25;-1.60;1.00
37956;DHT22;23776;51.592;7.180;2022-12-16T18:21:13;-1.60;1.00
37956;DHT22;23776;51.592;7.180;2022-12-16T18:23:57;-1.50;1.00
37956;DHT22;23776;51.592;7.180;2022-12-16T18:26:41;-1.50;1.00
37956;DHT22;23776;51.592;7.180;2022-12-16T18:29:26;-1.60;1.00
37956;DHT22;23776;51.592;7.180;2022-12-16T18:32:10;-1.60;1.00
37956;DHT22;23776;51.592;7.180;2022-12-16T18:34:54;-1.60;1.00
37956;DHT22;23776;51.592;7.180;2022-12-16T18:37:38;-1.60;1.70
37956;DHT22;23776;51.592;7.180;2022-12-16T18:40:22;-1.50;1.00
37956;DHT22;23776;51.592;7.180;2022-12-16T18:43:07;-1.50;2.80
37956;DHT22;23776;51.592;7.180;2022-12-16T18:45:54;-1.40;4.20
37956;DHT22;23776;51.592;7.180;2022-12-16T18:48:38;-1.40;2.00
37956;DHT22;23776;51.592;7.180;2022-12-16T18:51:22;-1.40;1.40
37956;DHT22;23776;51.592;7.180;2022-12-16T18:54:06;-1.40;1.60
37956;DHT22;23776;51.592;7.180;2022-12-16T18:56:50;-1.50;2.20
37956;DHT22;23776;51.592;7.180;2022-12-16T18:59:35;-1.50;1.60
37956;DHT22;23776;51.592;7.180;2022-12-16T19:02:19;-1.50;1.50
37956;DHT22;23776;51.592;7.180;2022-12-16T19:05:04;-1.50;1.00
37956;DHT22;23776;51.592;7.180;2022-12-16T19:07:48;-1.50;1.00
37956;DHT22;23776;51.592;7.180;2022-12-16T19:10:32;-1.50;1.00
37956;DHT22;23776;51.592;7.180;2022-12-16T19:13:17;-1.40;1.80
37956;DHT22;23776;51.592;7.180;2022-12-16T19:16:01;-1.40;2.20
37956;DHT22;23776;51.592;7.180;2022-12-16T19:18:46;-1.30;3.30
37956;DHT22;23776;51.592;7.180;2022-12-16T19:21:30;-1.40;1.30
37956;DHT22;23776;51.592;7.180;2022-12-16T19:24:15;-1.40;2.90
37956;DHT22;23776;51.592;7.180;2022-12-16T19:26:59;-1.30;2.20